createdAt,value
2018-12-15T00:01:27.545Z,11.37
2018-12-15T00:03:55.182Z,11.30
2018-12-15T00:06:22.798Z,10.90
2018-12-15T00:08:50.276Z,12.40
2018-12-15T00:11:17.756Z,10.07
2018-12-15T00:13:45.307Z,11.15
2018-12-15T00:16:12.807Z,11.43
2018-12-15T00:18:40.347Z,11.60
2018-12-15T00:21:07.837Z,12.27
2018-12-15T00:23:35.325Z,13.00
2018-12-15T00:26:02.829Z,10.13
2018-12-15T00:28:30.326Z,12.07
2018-12-15T00:30:58.107Z,11.53
2018-12-15T00:33:25.870Z,10.80
2018-12-15T00:35:53.366Z,10.23
2018-12-15T00:38:20.852Z,10.50
2018-12-15T00:40:48.361Z,11.40
2018-12-15T00:43:15.848Z,11.27
2018-12-15T00:45:43.521Z,12.90
2018-12-15T00:48:11.037Z,12.00
2018-12-15T00:50:38.528Z,11.45
2018-12-15T00:53:06.171Z,11.22
2018-12-15T00:55:33.677Z,10.75
2018-12-15T00:58:01.216Z,10.72
2018-12-15T01:00:28.838Z,11.50
2018-12-15T01:02:56.322Z,11.60
2018-12-15T01:05:23.805Z,11.17
2018-12-15T01:07:51.306Z,11.30
2018-12-15T01:10:18.793Z,11.35
2018-12-15T01:12:46.446Z,11.17
2018-12-15T01:15:13.937Z,11.93
2018-12-15T01:17:41.437Z,11.50
2018-12-15T01:20:09.017Z,11.70
2018-12-15T01:22:36.533Z,12.18
2018-12-15T01:25:04.024Z,11.68
2018-12-15T01:27:31.580Z,11.88
2018-12-15T01:29:59.096Z,11.63
2018-12-15T01:32:26.637Z,11.22
2018-12-15T01:34:54.165Z,12.88
2018-12-15T01:37:22.586Z,12.13
2018-12-15T01:39:50.139Z,12.00
2018-12-15T01:42:17.638Z,11.70
2018-12-15T01:44:45.150Z,11.80
2018-12-15T01:47:12.699Z,11.27
2018-12-15T01:49:40.182Z,11.17
2018-12-15T01:52:07.802Z,11.90
2018-12-15T01:54:35.326Z,12.13
2018-12-15T01:57:02.814Z,10.90
2018-12-15T01:59:30.472Z,13.15
2018-12-15T02:01:58.001Z,11.07
2018-12-15T02:04:25.479Z,11.77
2018-12-15T02:06:52.991Z,11.40
2018-12-15T02:09:20.511Z,11.87
2018-12-15T02:11:47.999Z,12.77
2018-12-15T02:14:15.564Z,12.03
2018-12-15T02:16:43.172Z,12.50
2018-12-15T02:19:10.836Z,12.40
2018-12-15T02:21:38.365Z,10.90
2018-12-15T02:24:05.890Z,10.97
2018-12-15T02:26:33.519Z,11.30
2018-12-15T02:29:01.047Z,12.43
2018-12-15T02:31:28.547Z,12.67
2018-12-15T02:33:56.067Z,12.10
2018-12-15T02:36:23.553Z,11.67
2018-12-15T02:38:51.131Z,11.63
2018-12-15T02:41:18.634Z,15.18
2018-12-15T02:43:46.124Z,11.80
2018-12-15T02:46:13.665Z,11.27
2018-12-15T02:48:41.217Z,11.95
2018-12-15T02:51:08.708Z,13.30
2018-12-15T02:53:36.205Z,12.40
2018-12-15T02:56:03.737Z,12.17
2018-12-15T02:58:31.235Z,11.27
2018-12-15T03:00:58.760Z,11.90
2018-12-15T03:03:26.269Z,12.85
2018-12-15T03:05:53.765Z,10.68
2018-12-15T03:08:21.416Z,12.40
2018-12-15T03:10:48.906Z,12.10
2018-12-15T03:13:16.431Z,11.50
2018-12-15T03:15:43.947Z,11.43
2018-12-15T03:18:11.437Z,13.28
2018-12-15T03:20:39.076Z,12.68
2018-12-15T03:23:06.586Z,11.38
2018-12-15T03:25:34.098Z,12.28
2018-12-15T03:28:01.638Z,11.67
2018-12-15T03:30:29.144Z,12.13
2018-12-15T03:32:56.674Z,12.47
2018-12-15T03:35:24.219Z,11.70
2018-12-15T03:37:51.705Z,12.30
2018-12-15T03:40:19.358Z,12.17
2018-12-15T03:42:46.847Z,11.97
2018-12-15T03:45:14.384Z,12.83
2018-12-15T03:47:41.940Z,11.57
2018-12-15T03:50:09.436Z,12.85
2018-12-15T03:52:36.939Z,13.30
2018-12-15T03:55:04.448Z,12.63
2018-12-15T03:57:31.963Z,12.80
2018-12-15T03:59:59.499Z,12.93
2018-12-15T04:02:27.015Z,13.22
2018-12-15T04:04:54.606Z,12.80
2018-12-15T04:07:22.263Z,13.45
2018-12-15T04:09:49.765Z,12.95
2018-12-15T04:12:17.253Z,12.68
2018-12-15T04:14:44.769Z,14.03
2018-12-15T04:17:12.303Z,13.65
2018-12-15T04:19:39.853Z,11.30
2018-12-15T04:22:19.615Z,12.15
2018-12-15T04:24:47.136Z,12.33
2018-12-15T04:27:14.632Z,13.53
2018-12-15T04:29:42.253Z,13.13
2018-12-15T04:32:09.754Z,13.72
2018-12-15T04:34:37.247Z,14.23
2018-12-15T04:37:04.755Z,14.63
2018-12-15T04:39:32.259Z,12.28
2018-12-15T04:41:59.822Z,13.15
2018-12-15T04:44:27.320Z,13.30
2018-12-15T04:46:54.873Z,12.33
2018-12-15T04:49:22.365Z,12.93
2018-12-15T04:51:49.950Z,14.25
2018-12-15T04:54:17.477Z,12.80
2018-12-15T04:56:44.973Z,13.55
2018-12-15T04:59:12.522Z,12.55
2018-12-15T05:01:40.048Z,14.50
2018-12-15T05:04:07.591Z,15.93
2018-12-15T05:06:35.089Z,13.90
2018-12-15T05:09:02.581Z,15.60
2018-12-15T05:11:30.096Z,14.65
2018-12-15T05:13:57.591Z,14.30
2018-12-15T05:16:25.110Z,12.93
2018-12-15T05:18:52.678Z,14.63
2018-12-15T05:21:20.204Z,14.73
2018-12-15T05:23:47.701Z,15.05
2018-12-15T05:26:15.241Z,15.83
2018-12-15T05:28:42.743Z,12.75
2018-12-15T05:31:10.237Z,13.98
2018-12-15T05:33:37.741Z,13.93
2018-12-15T05:36:05.353Z,14.53
2018-12-15T05:38:32.847Z,13.43
2018-12-15T05:41:00.350Z,13.70
2018-12-15T05:43:27.898Z,15.93
2018-12-15T05:45:55.384Z,13.50
2018-12-15T05:48:25.275Z,15.00
2018-12-15T05:50:52.410Z,15.00
2018-12-15T05:53:19.919Z,14.15
2018-12-15T05:55:47.459Z,15.65
2018-12-15T05:58:14.976Z,16.30
2018-12-15T06:00:42.716Z,14.18
2018-12-15T06:03:10.209Z,14.83
2018-12-15T06:05:37.923Z,15.18
2018-12-15T06:08:05.425Z,14.53
2018-12-15T06:10:32.960Z,15.08
2018-12-15T06:13:00.493Z,14.63
2018-12-15T06:15:28.014Z,15.63
2018-12-15T06:17:55.523Z,14.80
2018-12-15T06:20:23.056Z,14.17
2018-12-15T06:22:50.580Z,15.30
2018-12-15T06:25:18.103Z,15.18
2018-12-15T06:27:45.633Z,15.83
2018-12-15T06:30:13.173Z,15.40
2018-12-15T06:32:40.660Z,15.10
2018-12-15T06:35:08.172Z,15.30
2018-12-15T06:37:35.678Z,14.35
2018-12-15T06:40:04.057Z,17.30
2018-12-15T06:42:31.563Z,16.57
2018-12-15T06:44:59.065Z,15.53
2018-12-15T06:47:26.577Z,15.70
2018-12-15T06:49:54.068Z,16.62
2018-12-15T06:52:21.619Z,16.05
2018-12-15T06:54:49.343Z,14.80
2018-12-15T06:57:16.849Z,16.37
2018-12-15T06:59:44.438Z,15.28
2018-12-15T07:02:11.971Z,16.20
2018-12-15T07:04:39.467Z,15.23
2018-12-15T07:07:07.033Z,14.85
2018-12-15T07:09:34.533Z,14.90
2018-12-15T07:12:02.026Z,16.02
2018-12-15T07:14:29.609Z,15.75
2018-12-15T07:16:57.177Z,16.15
2018-12-15T07:19:24.697Z,17.30
2018-12-15T07:21:52.223Z,15.88
2018-12-15T07:24:19.865Z,16.50
2018-12-15T07:26:47.385Z,16.12
2018-12-15T07:29:14.897Z,16.15
2018-12-15T07:31:42.385Z,16.07
2018-12-15T07:34:09.917Z,15.03
2018-12-15T07:36:37.400Z,16.43
2018-12-15T07:39:05.203Z,15.88
2018-12-15T07:41:32.720Z,15.15
2018-12-15T07:44:00.248Z,15.30
2018-12-15T07:46:28.053Z,15.63
2018-12-15T07:48:55.541Z,15.70
2018-12-15T07:51:23.084Z,16.70
2018-12-15T07:53:50.614Z,14.77
2018-12-15T07:56:18.156Z,15.53
2018-12-15T07:58:45.677Z,15.50
2018-12-15T08:01:13.173Z,16.00
2018-12-15T08:03:40.717Z,16.30
2018-12-15T08:06:08.233Z,16.50
2018-12-15T08:08:35.766Z,16.50
2018-12-15T08:14:11.378Z,16.03
2018-12-15T08:16:38.938Z,16.70
2018-12-15T08:19:06.453Z,15.57
2018-12-15T08:21:34.006Z,17.30
2018-12-15T08:24:01.594Z,15.80
2018-12-15T08:26:29.094Z,15.45
2018-12-15T08:28:56.598Z,15.80
2018-12-15T08:31:24.141Z,16.17
2018-12-15T08:33:51.670Z,17.03
2018-12-15T08:36:19.169Z,16.95
2018-12-15T08:38:46.794Z,16.80
2018-12-15T08:41:14.320Z,16.25
2018-12-15T08:43:41.819Z,16.10
2018-12-15T08:46:11.308Z,14.47
2018-12-15T08:48:38.812Z,16.13
2018-12-15T08:51:06.445Z,17.97
2018-12-15T08:53:33.973Z,14.60
2018-12-15T08:56:01.476Z,16.23
2018-12-15T08:58:29.103Z,16.83
2018-12-15T09:00:56.674Z,16.53
2018-12-15T09:03:24.174Z,15.48
2018-12-15T09:05:51.680Z,14.20
2018-12-15T09:08:19.174Z,15.13
2018-12-15T09:10:46.751Z,15.90
2018-12-15T09:13:14.250Z,16.52
2018-12-15T09:15:41.801Z,14.60
2018-12-15T09:18:09.856Z,16.47
2018-12-15T09:20:37.457Z,18.37
2018-12-15T09:23:05.074Z,16.50
2018-12-15T09:25:32.624Z,14.00
2018-12-15T09:28:00.162Z,16.70
2018-12-15T09:30:27.777Z,16.10
2018-12-15T09:32:55.281Z,15.53
2018-12-15T09:35:22.778Z,15.43
2018-12-15T09:37:50.318Z,15.40
2018-12-15T09:40:17.840Z,14.13
2018-12-15T09:42:45.340Z,14.17
2018-12-15T09:45:12.870Z,15.27
2018-12-15T09:47:40.757Z,15.37
2018-12-15T09:50:08.248Z,15.50
2018-12-15T09:52:35.774Z,17.07
2018-12-15T09:55:03.280Z,15.70
2018-12-15T09:57:30.772Z,14.80
2018-12-15T09:59:58.284Z,16.60
2018-12-15T10:02:25.940Z,16.60
2018-12-15T10:04:53.433Z,16.47
2018-12-15T10:07:20.962Z,15.23
2018-12-15T10:09:48.497Z,17.40
2018-12-15T10:12:16.034Z,15.17
2018-12-15T10:14:43.540Z,15.47
2018-12-15T10:17:11.058Z,16.00
2018-12-15T10:19:38.549Z,15.80
2018-12-15T10:22:06.057Z,17.13
2018-12-15T10:24:33.571Z,16.53
2018-12-15T10:27:01.085Z,16.33
2018-12-15T10:32:36.090Z,16.57
2018-12-15T10:35:04.029Z,16.60
2018-12-15T10:37:31.574Z,15.33
2018-12-15T10:39:59.072Z,16.30
2018-12-15T10:42:26.557Z,17.70
2018-12-15T10:44:54.128Z,15.53
2018-12-15T10:47:21.753Z,18.83
2018-12-15T10:49:49.263Z,16.17
2018-12-15T10:52:16.753Z,17.47
2018-12-15T10:54:44.265Z,16.37
2018-12-15T10:57:11.762Z,17.57
2018-12-15T10:59:39.269Z,17.43
2018-12-15T11:02:06.811Z,14.57
2018-12-15T11:04:34.467Z,17.83
2018-12-15T11:07:01.984Z,16.37
2018-12-15T11:09:29.501Z,17.17
2018-12-15T11:11:57.019Z,15.67
2018-12-15T11:14:24.534Z,16.00
2018-12-15T11:16:52.077Z,15.97
2018-12-15T11:19:19.584Z,15.40
2018-12-15T11:21:47.094Z,17.80
2018-12-15T11:24:14.592Z,13.80
2018-12-15T11:26:42.141Z,17.80
2018-12-15T11:29:09.640Z,16.20
2018-12-15T11:31:37.138Z,15.50
2018-12-15T11:34:04.668Z,17.10
2018-12-15T11:36:32.198Z,16.67
2018-12-15T11:38:59.776Z,16.80
2018-12-15T11:41:27.301Z,14.77
2018-12-15T11:43:54.834Z,16.03
2018-12-15T11:46:22.332Z,17.00
2018-12-15T11:48:49.866Z,14.57
2018-12-15T11:51:17.350Z,15.10
2018-12-15T11:53:44.825Z,14.00
2018-12-15T11:56:12.325Z,16.63
2018-12-15T11:58:39.850Z,16.97
2018-12-15T12:01:07.546Z,14.80
2018-12-15T12:03:35.025Z,15.97
2018-12-15T12:06:03.596Z,16.43
2018-12-15T12:08:31.080Z,15.30
2018-12-15T12:10:58.562Z,14.83
2018-12-15T12:13:26.190Z,16.30
2018-12-15T12:15:53.726Z,15.43
2018-12-15T12:18:22.241Z,14.50
2018-12-15T12:20:49.866Z,15.10
2018-12-15T12:23:17.364Z,13.57
2018-12-15T12:25:44.846Z,13.30
2018-12-15T12:28:12.385Z,13.53
2018-12-15T12:30:39.864Z,10.80
2018-12-15T12:33:07.372Z,13.53
2018-12-15T12:35:34.914Z,14.67
2018-12-15T12:38:02.478Z,12.83
2018-12-15T12:40:29.974Z,14.63
2018-12-15T12:42:57.466Z,16.63
2018-12-15T12:45:25.013Z,14.03
2018-12-15T12:47:52.540Z,12.37
2018-12-15T12:50:20.020Z,14.03
2018-12-15T12:52:47.539Z,14.13
2018-12-15T12:55:15.033Z,12.80
2018-12-15T12:57:42.565Z,12.43
2018-12-15T13:00:10.250Z,13.27
2018-12-15T13:02:37.769Z,12.60
2018-12-15T13:05:05.834Z,12.43
2018-12-15T13:07:33.447Z,11.57
2018-12-15T13:10:01.004Z,13.10
2018-12-15T13:12:28.485Z,12.43
2018-12-15T13:14:55.988Z,13.23
2018-12-15T13:17:23.614Z,11.23
2018-12-15T13:19:51.099Z,11.60
2018-12-15T13:22:18.627Z,11.77
2018-12-15T13:24:46.239Z,11.53
2018-12-15T13:27:13.724Z,11.93
2018-12-15T13:29:41.201Z,10.73
2018-12-15T13:32:08.715Z,11.83
2018-12-15T13:34:36.255Z,13.17
2018-12-15T13:37:03.743Z,12.07
2018-12-15T13:39:31.242Z,12.60
2018-12-15T13:41:58.868Z,12.53
2018-12-15T13:44:26.357Z,11.63
2018-12-15T13:46:53.884Z,12.70
2018-12-15T13:49:21.430Z,10.93
2018-12-15T13:51:48.928Z,13.70
2018-12-15T13:54:16.687Z,9.37
2018-12-15T13:56:44.178Z,11.70
2018-12-15T13:59:11.658Z,11.80
2018-12-15T14:01:39.159Z,12.10
2018-12-15T14:04:06.681Z,11.90
2018-12-15T14:06:34.258Z,11.93
2018-12-15T14:09:01.735Z,12.40
2018-12-15T14:11:29.220Z,12.20
2018-12-15T14:13:56.833Z,13.07
2018-12-15T14:16:24.363Z,12.50
2018-12-15T14:18:51.856Z,10.30
2018-12-15T14:21:19.403Z,11.17
2018-12-15T14:23:46.916Z,11.30
2018-12-15T14:26:14.436Z,11.00
2018-12-15T14:28:41.982Z,12.63
2018-12-15T14:31:09.470Z,11.37
2018-12-15T14:33:37.016Z,12.37
2018-12-15T14:36:04.510Z,12.03
2018-12-15T14:38:32.048Z,10.70
2018-12-15T14:40:59.650Z,12.83
2018-12-15T14:43:27.160Z,12.30
2018-12-15T14:45:54.654Z,12.03
2018-12-15T14:48:22.158Z,11.73
2018-12-15T14:50:49.647Z,11.50
2018-12-15T14:53:17.215Z,13.07
2018-12-15T14:55:44.746Z,12.07
2018-12-15T14:58:12.244Z,12.70
2018-12-15T15:00:39.757Z,12.28
2018-12-15T15:03:07.249Z,12.57
2018-12-15T15:05:34.863Z,11.60
2018-12-15T15:08:02.350Z,13.40
2018-12-15T15:10:29.826Z,12.33
2018-12-15T15:12:57.331Z,12.93
2018-12-15T15:15:24.808Z,12.07
2018-12-15T15:17:52.304Z,12.60
2018-12-15T15:20:21.298Z,12.43
2018-12-15T15:22:48.948Z,13.27
2018-12-15T15:25:16.438Z,11.83
2018-12-15T15:27:43.960Z,11.40
2018-12-15T15:30:11.649Z,12.10
2018-12-15T15:32:39.192Z,13.77
2018-12-15T15:35:06.816Z,12.47
2018-12-15T15:37:34.329Z,12.77
2018-12-15T15:40:01.894Z,12.03
2018-12-15T15:42:29.434Z,12.45
2018-12-15T15:44:57.050Z,13.23
2018-12-15T15:47:24.768Z,12.53
2018-12-15T15:49:52.286Z,11.57
2018-12-15T15:52:20.131Z,11.30
2018-12-15T15:54:47.634Z,11.55
2018-12-15T15:57:15.127Z,13.40
2018-12-15T15:59:43.807Z,11.90
2018-12-15T16:02:11.324Z,10.57
2018-12-15T16:04:38.805Z,12.00
2018-12-15T16:07:06.669Z,12.83
2018-12-15T16:09:34.148Z,11.93
2018-12-15T16:12:01.636Z,12.63
2018-12-15T16:14:29.211Z,12.30
2018-12-15T16:16:56.732Z,11.60
2018-12-15T16:19:24.210Z,12.87
2018-12-15T16:21:51.699Z,12.45
2018-12-15T16:24:19.200Z,12.10
2018-12-15T16:26:46.687Z,11.68
2018-12-15T16:29:14.225Z,11.50
2018-12-15T16:31:41.747Z,14.15
2018-12-15T16:34:09.384Z,23.93
2018-12-15T16:36:36.919Z,17.45
2018-12-15T16:39:06.266Z,17.00
2018-12-15T16:41:33.857Z,15.27
2018-12-15T16:44:01.408Z,14.57
2018-12-15T16:46:28.984Z,14.73
2018-12-15T16:48:56.527Z,12.55
2018-12-15T16:51:24.832Z,13.48
2018-12-15T16:53:52.433Z,12.57
2018-12-15T16:56:19.924Z,12.40
2018-12-15T16:58:47.404Z,12.37
2018-12-15T17:01:15.009Z,16.10
2018-12-15T17:03:42.507Z,14.40
2018-12-15T17:06:10.022Z,12.63
2018-12-15T17:08:37.586Z,14.93
2018-12-15T17:11:05.066Z,16.57
2018-12-15T17:13:32.602Z,14.35
2018-12-15T17:16:00.100Z,12.13
2018-12-15T17:18:27.721Z,14.10
2018-12-15T17:20:56.860Z,12.98
2018-12-15T17:23:24.635Z,13.35
2018-12-15T17:25:52.140Z,14.20
2018-12-15T17:28:19.641Z,12.33
2018-12-15T17:30:47.117Z,14.58
2018-12-15T17:33:14.960Z,12.13
2018-12-15T17:35:42.435Z,12.07
2018-12-15T17:38:09.942Z,13.90
2018-12-15T17:40:37.563Z,13.05
2018-12-15T17:43:05.050Z,12.07
2018-12-15T17:45:32.541Z,13.90
2018-12-15T17:48:00.054Z,13.10
2018-12-15T17:50:27.548Z,13.15
2018-12-15T17:52:55.086Z,13.15
2018-12-15T17:55:22.575Z,13.15
2018-12-15T17:57:50.089Z,14.80
2018-12-15T18:00:17.576Z,13.48
2018-12-15T18:02:45.090Z,13.80
2018-12-15T18:05:12.580Z,12.07
2018-12-15T18:07:40.085Z,13.38
2018-12-15T18:10:08.230Z,14.25
2018-12-15T18:12:35.716Z,12.07
2018-12-15T18:15:03.275Z,13.05
2018-12-15T18:17:30.807Z,13.20
2018-12-15T18:19:58.297Z,13.08
2018-12-15T18:22:25.826Z,11.40
2018-12-15T18:24:53.392Z,13.10
2018-12-15T18:27:20.971Z,15.43
2018-12-15T18:29:48.460Z,13.20
2018-12-15T18:32:15.945Z,13.43
2018-12-15T18:34:43.564Z,11.22
2018-12-15T18:37:11.054Z,11.68
2018-12-15T18:39:38.539Z,11.35
2018-12-15T18:42:10.786Z,12.07
2018-12-15T18:44:35.554Z,13.43
2018-12-15T18:47:03.127Z,11.70
2018-12-15T18:49:30.612Z,12.35
2018-12-15T18:51:58.101Z,13.08
2018-12-15T18:54:25.716Z,12.78
2018-12-15T18:56:53.337Z,13.30
2018-12-15T18:59:21.008Z,13.58
2018-12-15T19:01:48.512Z,13.35
2018-12-15T19:04:16.042Z,12.20
2018-12-15T19:06:43.608Z,12.93
2018-12-15T19:09:11.106Z,13.00
2018-12-15T19:11:38.644Z,13.15
2018-12-15T19:14:06.172Z,11.68
2018-12-15T19:16:33.790Z,12.80
2018-12-15T19:19:01.316Z,9.48
2018-12-15T19:21:28.824Z,12.47
2018-12-15T19:23:56.336Z,11.75
2018-12-15T19:26:23.826Z,10.80
2018-12-15T19:28:51.336Z,16.27
2018-12-15T19:31:18.833Z,13.13
2018-12-15T19:33:46.374Z,12.50
2018-12-15T19:36:13.864Z,13.60
2018-12-15T19:38:41.530Z,12.88
2018-12-15T19:41:09.019Z,14.60
2018-12-15T19:43:36.536Z,12.85
2018-12-15T19:46:04.176Z,12.18
2018-12-15T19:48:31.665Z,13.08
2018-12-15T19:50:59.149Z,13.18
2018-12-15T19:53:26.690Z,12.13
2018-12-15T19:55:54.182Z,12.68
2018-12-15T19:58:21.720Z,9.83
2018-12-15T20:00:49.204Z,13.43
2018-12-15T20:03:16.701Z,12.43
2018-12-15T20:05:44.196Z,11.83
2018-12-15T20:08:11.767Z,14.30
2018-12-15T20:10:39.258Z,13.15
2018-12-15T20:13:06.745Z,12.47
2018-12-15T20:15:34.244Z,13.40
2018-12-15T20:18:01.739Z,10.00
2018-12-15T20:20:29.256Z,9.58
2018-12-15T20:22:56.744Z,11.83
2018-12-15T20:25:24.351Z,11.57
2018-12-15T20:27:51.870Z,15.18
2018-12-15T20:30:19.364Z,11.20
2018-12-15T20:32:46.860Z,12.60
2018-12-15T20:35:14.340Z,13.93
2018-12-15T20:37:41.848Z,13.32
2018-12-15T20:40:09.348Z,13.38
2018-12-15T20:42:36.841Z,11.28
2018-12-15T20:45:04.944Z,11.38
2018-12-15T20:47:32.468Z,9.60
2018-12-15T20:49:59.972Z,12.37
2018-12-15T20:52:27.464Z,10.98
2018-12-15T20:54:54.984Z,12.07
2018-12-15T20:57:22.464Z,12.00
2018-12-15T20:59:49.977Z,10.90
2018-12-15T21:02:17.481Z,11.70
2018-12-15T21:04:44.964Z,10.50
2018-12-15T21:07:12.531Z,11.68
2018-12-15T21:09:40.029Z,11.53
2018-12-15T21:12:07.504Z,11.70
2018-12-15T21:14:35.042Z,9.10
2018-12-15T21:17:02.571Z,11.70
2018-12-15T21:19:30.184Z,12.28
2018-12-15T21:21:57.750Z,12.05
2018-12-15T21:24:25.302Z,11.20
2018-12-15T21:26:52.808Z,13.08
2018-12-15T21:29:20.374Z,11.33
2018-12-15T21:31:47.867Z,11.55
2018-12-15T21:34:15.440Z,10.70
2018-12-15T21:36:42.944Z,11.25
2018-12-15T21:39:10.442Z,11.03
2018-12-15T21:41:37.951Z,11.15
2018-12-15T21:44:05.437Z,9.98
2018-12-15T21:46:33.043Z,13.28
2018-12-15T21:49:00.561Z,15.68
2018-12-15T21:51:28.056Z,10.00
2018-12-15T21:53:55.838Z,10.45
2018-12-15T21:56:23.360Z,10.40
2018-12-15T21:58:50.847Z,9.75
2018-12-15T22:01:18.439Z,10.35
2018-12-15T22:03:45.928Z,9.70
2018-12-15T22:06:13.539Z,11.43
2018-12-15T22:08:41.049Z,9.35
2018-12-15T22:11:08.527Z,10.75
2018-12-15T22:13:36.042Z,10.95
2018-12-15T22:16:03.604Z,11.25
2018-12-15T22:18:31.096Z,9.95
2018-12-15T22:20:58.772Z,11.40
2018-12-15T22:23:26.333Z,10.70
2018-12-15T22:25:53.862Z,10.43
2018-12-15T22:28:21.377Z,9.13
2018-12-15T22:30:49.017Z,9.50
2018-12-15T22:33:16.542Z,10.13
2018-12-15T22:35:44.023Z,9.85
2018-12-15T22:38:11.924Z,10.48
2018-12-15T22:40:39.407Z,10.32
2018-12-15T22:43:06.880Z,9.95
2018-12-15T22:45:34.418Z,10.45
2018-12-15T22:48:01.897Z,10.45
2018-12-15T22:50:29.422Z,10.38
2018-12-15T22:52:56.944Z,10.25
2018-12-15T22:55:24.546Z,10.43
2018-12-15T22:57:52.040Z,10.90
2018-12-15T23:00:19.549Z,10.75
2018-12-15T23:02:47.041Z,11.53
2018-12-15T23:05:14.543Z,10.95
2018-12-15T23:07:42.051Z,10.68
2018-12-15T23:10:09.655Z,10.70
2018-12-15T23:12:37.160Z,7.58
2018-12-15T23:15:05.708Z,11.85
2018-12-15T23:17:33.549Z,13.40
2018-12-15T23:20:01.048Z,12.33
2018-12-15T23:22:28.581Z,10.68
2018-12-15T23:24:56.121Z,12.45
2018-12-15T23:27:23.736Z,12.40
2018-12-15T23:29:51.219Z,13.78
2018-12-15T23:32:18.697Z,9.55
2018-12-15T23:34:46.233Z,11.30
2018-12-15T23:37:13.716Z,9.98
2018-12-15T23:39:41.291Z,11.70
2018-12-15T23:42:08.829Z,9.03
2018-12-15T23:44:36.447Z,12.13
2018-12-15T23:47:03.930Z,12.47
2018-12-15T23:49:31.468Z,11.70
2018-12-15T23:51:59.009Z,10.50
2018-12-15T23:54:26.665Z,13.98
2018-12-15T23:56:54.313Z,19.60
2018-12-15T23:59:21.790Z,11.00
